Time,TemperatureF,DewpointF,PressureIn,WindDirection,WindDirectionDegrees,WindSpeedMPH,WindSpeedGustMPH,Humidity,HourlyPrecipIn,Conditions,Clouds,dailyrainin,SoftwareType,DateUTC
2013-07-06 00:02:00,70.0,44.0,-100.00,WNW,303,16.0,24.0,39,-99.99,,,-99.99,,2013-07-06 07:02:00,
2013-07-06 00:12:00,70.0,44.0,-100.00,WNW,303,16.0,24.0,39,-99.99,,,-99.99,,2013-07-06 07:12:00,
2013-07-06 01:02:00,68.0,46.0,-100.00,WNW,299,16.0,23.0,45,-99.99,,,-99.99,,2013-07-06 08:02:00,
2013-07-06 01:11:00,68.0,46.0,-100.00,WNW,299,16.0,23.0,45,-99.99,,,-99.99,,2013-07-06 08:11:00,
2013-07-06 02:02:00,67.0,46.0,-100.00,WNW,296,15.0,21.0,46,-99.99,,,-99.99,,2013-07-06 09:02:00,
2013-07-06 02:11:00,67.0,46.0,-100.00,WNW,296,15.0,21.0,46,-99.99,,,-99.99,,2013-07-06 09:11:00,
2013-07-06 03:02:00,66.0,46.0,-100.00,WNW,298,14.0,20.0,48,-99.99,,,-99.99,,2013-07-06 10:02:00,
2013-07-06 03:11:00,66.0,46.0,-100.00,WNW,298,14.0,20.0,48,-99.99,,,-99.99,,2013-07-06 10:11:00,
2013-07-06 04:01:00,66.0,46.0,-100.00,WNW,287,13.0,20.0,48,-99.99,,,-99.99,,2013-07-06 11:01:00,
2013-07-06 04:11:00,66.0,46.0,-100.00,WNW,287,13.0,20.0,48,-99.99,,,-99.99,,2013-07-06 11:11:00,
2013-07-06 05:01:00,64.0,46.0,-100.00,North,352,3.0,10.0,51,-99.99,,,-99.99,,2013-07-06 12:01:00,
2013-07-06 05:11:00,64.0,46.0,-100.00,North,352,3.0,10.0,51,-99.99,,,-99.99,,2013-07-06 12:11:00,
2013-07-06 06:12:00,62.0,47.0,-100.00,NNE,13,2.0,3.0,57,-99.99,,,-99.99,,2013-07-06 13:12:00,
2013-07-06 07:02:00,62.0,48.0,-100.00,SSE,150,3.0,6.0,60,-99.99,,,-99.99,,2013-07-06 14:02:00,
2013-07-06 07:11:00,62.0,48.0,-100.00,SSE,150,3.0,6.0,60,-99.99,,,-99.99,,2013-07-06 14:11:00,
2013-07-06 08:02:00,66.0,47.0,-100.00,East,81,3.0,5.0,50,-99.99,,,-99.99,,2013-07-06 15:02:00,
2013-07-06 08:12:00,66.0,47.0,-100.00,East,81,3.0,5.0,50,-99.99,,,-99.99,,2013-07-06 15:12:00,
2013-07-06 09:05:00,70.0,47.0,-100.00,SE,137,3.0,5.0,43,-99.99,,,-99.99,,2013-07-06 16:05:00,
2013-07-06 09:14:00,70.0,47.0,-100.00,SE,137,3.0,5.0,43,-99.99,,,-99.99,,2013-07-06 16:14:00,
2013-07-06 10:07:00,73.0,47.0,-100.00,West,266,3.0,6.0,39,-99.99,,,-99.99,,2013-07-06 17:07:00,
2013-07-06 10:15:00,77.0,45.0,-100.00,SSE,148,3.0,7.0,32,-99.99,,,-99.99,,2013-07-06 17:15:00,
2013-07-06 11:15:00,80.0,45.0,-100.00,NNE,32,3.0,10.0,29,-99.99,,,-99.99,,2013-07-06 18:15:00,
2013-07-06 12:08:00,80.0,45.0,-100.00,NNE,32,3.0,10.0,29,-99.99,,,-99.99,,2013-07-06 19:08:00,
2013-07-06 12:15:00,83.0,44.0,-100.00,NE,53,3.0,9.0,25,-99.99,,,-99.99,,2013-07-06 19:15:00,
2013-07-06 13:07:00,83.0,44.0,-100.00,NE,53,3.0,9.0,25,-99.99,,,-99.99,,2013-07-06 20:07:00,
2013-07-06 14:14:00,85.0,43.0,-100.00,NE,51,6.0,16.0,22,-99.99,,,-99.99,,2013-07-06 21:14:00,
2013-07-06 14:15:00,86.0,42.0,-100.00,ENE,59,5.0,9.0,21,-99.99,,,-99.99,,2013-07-06 21:15:00,
2013-07-06 15:08:00,86.0,42.0,-100.00,ENE,59,5.0,9.0,21,-99.99,,,-99.99,,2013-07-06 22:08:00,
2013-07-06 16:07:00,87.0,41.0,-100.00,ESE,118,5.0,12.0,19,-99.99,,,-99.99,,2013-07-06 23:07:00,
2013-07-06 16:15:00,89.0,41.0,-100.00,East,81,9.0,18.0,18,-99.99,,,-99.99,,2013-07-06 23:15:00,
2013-07-06 17:08:00,89.0,41.0,-100.00,East,81,9.0,18.0,18,-99.99,,,-99.99,,2013-07-07 00:08:00,
2013-07-06 18:15:00,89.0,40.0,-100.00,NE,47,10.0,18.0,17,-99.99,,,-99.99,,2013-07-07 01:15:00,
2013-07-06 20:06:00,89.0,38.0,-100.00,NNE,20,5.0,8.0,16,-99.99,,,-99.99,,2013-07-07 03:06:00,
2013-07-06 21:01:00,88.0,38.0,-100.00,ENE,60,3.0,6.0,17,-99.99,,,-99.99,,2013-07-07 04:01:00,
2013-07-06 21:11:00,88.0,38.0,-100.00,ENE,60,3.0,6.0,17,-99.99,,,-99.99,,2013-07-07 04:11:00,
2013-07-06 22:01:00,83.0,41.0,-100.00,SE,142,3.0,3.0,22,-99.99,,,-99.99,,2013-07-07 05:01:00,
2013-07-06 22:11:00,83.0,41.0,-100.00,SE,142,3.0,3.0,22,-99.99,,,-99.99,,2013-07-07 05:11:00,
2013-07-06 23:01:00,76.0,41.0,-100.00,WSW,258,8.0,10.0,28,-99.99,,,-99.99,,2013-07-07 06:01:00,
2013-07-06 23:11:00,76.0,41.0,-100.00,WSW,258,8.0,10.0,28,-99.99,,,-99.99,,2013-07-07 06:11:00,